sensor_id;sensor_type;location;lat;lon;timestamp;temperature;humidity
69261;DHT22;56378;52.404;20.816;2022-12-07T00:01:40;-0.40;99.90
69261;DHT22;56378;52.404;20.816;2022-12-07T00:04:09;-0.40;99.90
69261;DHT22;56378;52.404;20.816;2022-12-07T00:06:37;-0.40;99.90
69261;DHT22;56378;52.404;20.816;2022-12-07T00:09:08;-0.40;99.90
69261;DHT22;56378;52.404;20.816;2022-12-07T00:11:35;-0.40;99.90
69261;DHT22;56378;52.404;20.816;2022-12-07T00:14:04;-0.40;99.90
69261;DHT22;56378;52.404;20.816;2022-12-07T00:16:32;-0.40;99.90
69261;DHT22;56378;52.404;20.816;2022-12-07T00:18:58;-0.40;99.90
69261;DHT22;56378;52.404;20.816;2022-12-07T00:21:26;-0.30;99.90
69261;DHT22;56378;52.404;20.816;2022-12-07T00:23:54;-0.30;99.90
69261;DHT22;56378;52.404;20.816;2022-12-07T00:26:22;-0.30;99.90
69261;DHT22;56378;52.404;20.816;2022-12-07T00:28:50;-0.30;99.90
69261;DHT22;56378;52.404;20.816;2022-12-07T00:31:18;-0.30;99.90
69261;DHT22;56378;52.404;20.816;2022-12-07T00:33:44;-0.30;99.90
69261;DHT22;56378;52.404;20.816;2022-12-07T00:36:13;-0.30;99.90
69261;DHT22;56378;52.404;20.816;2022-12-07T00:38:40;-0.30;99.90
69261;DHT22;56378;52.404;20.816;2022-12-07T00:41:09;-0.30;99.90
69261;DHT22;56378;52.404;20.816;2022-12-07T00:43:35;-0.30;99.90
69261;DHT22;56378;52.404;20.816;2022-12-07T00:46:01;-0.30;99.90
69261;DHT22;56378;52.404;20.816;2022-12-07T00:48:27;-0.30;99.90
69261;DHT22;56378;52.404;20.816;2022-12-07T00:50:53;-0.20;99.90
69261;DHT22;56378;52.404;20.816;2022-12-07T00:53:18;-0.20;99.90
69261;DHT22;56378;52.404;20.816;2022-12-07T00:55:44;-0.20;99.90
69261;DHT22;56378;52.404;20.816;2022-12-07T00:58:11;-0.20;99.90
69261;DHT22;56378;52.404;20.816;2022-12-07T01:00:38;-0.20;99.90
69261;DHT22;56378;52.404;20.816;2022-12-07T01:03:05;-0.20;99.90
69261;DHT22;56378;52.404;20.816;2022-12-07T01:05:31;-0.20;99.90
69261;DHT22;56378;52.404;20.816;2022-12-07T01:07:56;-0.10;99.90
69261;DHT22;56378;52.404;20.816;2022-12-07T01:10:22;-0.10;99.90
69261;DHT22;56378;52.404;20.816;2022-12-07T01:12:48;-0.10;99.90
69261;DHT22;56378;52.404;20.816;2022-12-07T01:15:13;-0.10;99.90
69261;DHT22;56378;52.404;20.816;2022-12-07T01:17:39;-0.10;99.90
69261;DHT22;56378;52.404;20.816;2022-12-07T01:20:05;0.00;99.90
69261;DHT22;56378;52.404;20.816;2022-12-07T01:22:40;-0.10;99.90
69261;DHT22;56378;52.404;20.816;2022-12-07T01:25:07;0.00;99.90
69261;DHT22;56378;52.404;20.816;2022-12-07T01:27:36;0.00;99.90
69261;DHT22;56378;52.404;20.816;2022-12-07T01:30:04;0.00;99.90
69261;DHT22;56378;52.404;20.816;2022-12-07T01:32:30;0.00;99.90
69261;DHT22;56378;52.404;20.816;2022-12-07T01:34:55;0.00;99.90
69261;DHT22;56378;52.404;20.816;2022-12-07T01:37:21;0.00;99.90
69261;DHT22;56378;52.404;20.816;2022-12-07T01:39:51;0.00;99.90
69261;DHT22;56378;52.404;20.816;2022-12-07T01:42:18;0.00;99.90
69261;DHT22;56378;52.404;20.816;2022-12-07T01:47:47;0.00;99.90
69261;DHT22;56378;52.404;20.816;2022-12-07T01:50:13;0.00;99.90
69261;DHT22;56378;52.404;20.816;2022-12-07T01:52:40;0.10;99.90
69261;DHT22;56378;52.404;20.816;2022-12-07T01:55:09;0.10;99.90
69261;DHT22;56378;52.404;20.816;2022-12-07T01:57:43;0.10;99.90
69261;DHT22;56378;52.404;20.816;2022-12-07T02:00:11;0.10;99.90
69261;DHT22;56378;52.404;20.816;2022-12-07T02:02:51;0.10;99.90
69261;DHT22;56378;52.404;20.816;2022-12-07T02:05:18;0.10;99.90
69261;DHT22;56378;52.404;20.816;2022-12-07T02:07:46;0.10;99.90
69261;DHT22;56378;52.404;20.816;2022-12-07T02:10:14;0.10;99.90
69261;DHT22;56378;52.404;20.816;2022-12-07T02:12:41;0.10;99.90
69261;DHT22;56378;52.404;20.816;2022-12-07T02:15:08;0.10;99.90
69261;DHT22;56378;52.404;20.816;2022-12-07T02:18:05;0.10;99.90
69261;DHT22;56378;52.404;20.816;2022-12-07T02:31:18;0.10;99.90
69261;DHT22;56378;52.404;20.816;2022-12-07T02:33:50;0.10;99.90
69261;DHT22;56378;52.404;20.816;2022-12-07T02:36:26;0.10;99.90
69261;DHT22;56378;52.404;20.816;2022-12-07T02:39:17;0.10;99.90
69261;DHT22;56378;52.404;20.816;2022-12-07T02:41:52;0.10;99.90
69261;DHT22;56378;52.404;20.816;2022-12-07T02:44:25;0.20;99.90
69261;DHT22;56378;52.404;20.816;2022-12-07T02:47:04;0.20;99.90
69261;DHT22;56378;52.404;20.816;2022-12-07T02:49:32;0.20;99.90
69261;DHT22;56378;52.404;20.816;2022-12-07T02:51:58;0.20;99.90
69261;DHT22;56378;52.404;20.816;2022-12-07T02:54:23;0.20;99.90
69261;DHT22;56378;52.404;20.816;2022-12-07T02:56:56;0.20;99.90
69261;DHT22;56378;52.404;20.816;2022-12-07T03:07:58;0.30;99.90
69261;DHT22;56378;52.404;20.816;2022-12-07T03:10:33;0.30;99.90
69261;DHT22;56378;52.404;20.816;2022-12-07T03:13:19;0.30;99.90
69261;DHT22;56378;52.404;20.816;2022-12-07T03:18:57;0.30;99.90
69261;DHT22;56378;52.404;20.816;2022-12-07T03:21:32;0.40;99.90
69261;DHT22;56378;52.404;20.816;2022-12-07T03:24:01;0.40;99.90
69261;DHT22;56378;52.404;20.816;2022-12-07T03:26:34;0.40;99.90
69261;DHT22;56378;52.404;20.816;2022-12-07T03:29:09;0.40;99.90
69261;DHT22;56378;52.404;20.816;2022-12-07T03:31:41;0.40;99.90
69261;DHT22;56378;52.404;20.816;2022-12-07T03:36:47;0.40;99.90
69261;DHT22;56378;52.404;20.816;2022-12-07T03:39:26;0.40;99.90
69261;DHT22;56378;52.404;20.816;2022-12-07T03:41:54;0.40;99.90
69261;DHT22;56378;52.404;20.816;2022-12-07T03:44:21;0.40;99.90
69261;DHT22;56378;52.404;20.816;2022-12-07T03:51:55;0.40;99.90
69261;DHT22;56378;52.404;20.816;2022-12-07T03:54:33;0.40;99.90
69261;DHT22;56378;52.404;20.816;2022-12-07T03:57:01;0.40;99.90
69261;DHT22;56378;52.404;20.816;2022-12-07T03:59:28;0.40;99.90
69261;DHT22;56378;52.404;20.816;2022-12-07T04:01:57;0.40;99.90
69261;DHT22;56378;52.404;20.816;2022-12-07T04:04:24;0.40;99.90
69261;DHT22;56378;52.404;20.816;2022-12-07T04:06:50;0.40;99.90
69261;DHT22;56378;52.404;20.816;2022-12-07T04:09:16;0.40;99.90
69261;DHT22;56378;52.404;20.816;2022-12-07T04:11:43;0.40;99.90
69261;DHT22;56378;52.404;20.816;2022-12-07T04:14:08;0.40;99.90
69261;DHT22;56378;52.404;20.816;2022-12-07T04:16:51;0.40;99.90
69261;DHT22;56378;52.404;20.816;2022-12-07T04:19:19;0.40;99.90
69261;DHT22;56378;52.404;20.816;2022-12-07T04:21:45;0.40;99.90
69261;DHT22;56378;52.404;20.816;2022-12-07T04:24:12;0.30;99.90
69261;DHT22;56378;52.404;20.816;2022-12-07T04:26:38;0.30;99.90
69261;DHT22;56378;52.404;20.816;2022-12-07T04:29:04;0.30;99.90
69261;DHT22;56378;52.404;20.816;2022-12-07T04:31:30;0.40;99.90
69261;DHT22;56378;52.404;20.816;2022-12-07T04:33:56;0.40;99.90
69261;DHT22;56378;52.404;20.816;2022-12-07T04:36:21;0.40;99.90
69261;DHT22;56378;52.404;20.816;2022-12-07T04:38:47;0.40;99.90
69261;DHT22;56378;52.404;20.816;2022-12-07T04:41:14;0.40;99.90
69261;DHT22;56378;52.404;20.816;2022-12-07T04:43:39;0.40;99.90
69261;DHT22;56378;52.404;20.816;2022-12-07T04:46:05;0.40;99.90
69261;DHT22;56378;52.404;20.816;2022-12-07T04:48:31;0.40;99.90
69261;DHT22;56378;52.404;20.816;2022-12-07T04:50:57;0.40;99.90
69261;DHT22;56378;52.404;20.816;2022-12-07T04:53:22;0.40;99.90
69261;DHT22;56378;52.404;20.816;2022-12-07T04:55:48;0.40;99.90
69261;DHT22;56378;52.404;20.816;2022-12-07T04:58:14;0.40;99.90
69261;DHT22;56378;52.404;20.816;2022-12-07T05:00:40;0.30;99.90
69261;DHT22;56378;52.404;20.816;2022-12-07T05:03:06;0.30;99.90
69261;DHT22;56378;52.404;20.816;2022-12-07T05:05:31;0.30;99.90
69261;DHT22;56378;52.404;20.816;2022-12-07T05:07:57;0.30;99.90
69261;DHT22;56378;52.404;20.816;2022-12-07T05:10:23;0.30;99.90
69261;DHT22;56378;52.404;20.816;2022-12-07T05:12:49;0.30;99.90
69261;DHT22;56378;52.404;20.816;2022-12-07T05:15:15;0.30;99.90
69261;DHT22;56378;52.404;20.816;2022-12-07T05:17:41;0.30;99.90
69261;DHT22;56378;52.404;20.816;2022-12-07T05:20:08;0.30;99.90
69261;DHT22;56378;52.404;20.816;2022-12-07T05:22:34;0.20;99.90
69261;DHT22;56378;52.404;20.816;2022-12-07T05:25:00;0.20;99.90
69261;DHT22;56378;52.404;20.816;2022-12-07T05:27:26;0.30;99.90
69261;DHT22;56378;52.404;20.816;2022-12-07T05:29:51;0.20;99.90
69261;DHT22;56378;52.404;20.816;2022-12-07T05:32:17;0.30;99.90
69261;DHT22;56378;52.404;20.816;2022-12-07T05:34:43;0.30;99.90
69261;DHT22;56378;52.404;20.816;2022-12-07T05:37:08;0.30;99.90
69261;DHT22;56378;52.404;20.816;2022-12-07T05:39:34;0.20;99.90
69261;DHT22;56378;52.404;20.816;2022-12-07T05:42:00;0.20;99.90
69261;DHT22;56378;52.404;20.816;2022-12-07T05:44:43;0.20;99.90
69261;DHT22;56378;52.404;20.816;2022-12-07T05:47:10;0.20;99.90
69261;DHT22;56378;52.404;20.816;2022-12-07T05:49:36;0.10;99.90
69261;DHT22;56378;52.404;20.816;2022-12-07T05:52:02;0.10;99.90
69261;DHT22;56378;52.404;20.816;2022-12-07T05:54:28;0.00;99.90
69261;DHT22;56378;52.404;20.816;2022-12-07T05:56:54;0.00;99.90
69261;DHT22;56378;52.404;20.816;2022-12-07T05:59:20;0.00;99.90
69261;DHT22;56378;52.404;20.816;2022-12-07T06:02:00;0.00;99.90
69261;DHT22;56378;52.404;20.816;2022-12-07T06:04:29;-0.10;99.90
69261;DHT22;56378;52.404;20.816;2022-12-07T06:06:56;-0.10;99.90
69261;DHT22;56378;52.404;20.816;2022-12-07T06:09:22;-0.10;99.90
69261;DHT22;56378;52.404;20.816;2022-12-07T06:11:48;-0.10;99.90
69261;DHT22;56378;52.404;20.816;2022-12-07T06:14:32;-0.10;99.90
69261;DHT22;56378;52.404;20.816;2022-12-07T06:16:58;-0.10;99.90
69261;DHT22;56378;52.404;20.816;2022-12-07T06:19:24;-0.10;99.90
69261;DHT22;56378;52.404;20.816;2022-12-07T06:21:50;-0.20;99.90
69261;DHT22;56378;52.404;20.816;2022-12-07T06:24:17;-0.20;99.90
69261;DHT22;56378;52.404;20.816;2022-12-07T06:26:43;-0.20;99.90
69261;DHT22;56378;52.404;20.816;2022-12-07T06:29:09;-0.20;99.90
69261;DHT22;56378;52.404;20.816;2022-12-07T06:31:36;-0.30;99.90
69261;DHT22;56378;52.404;20.816;2022-12-07T06:34:05;-0.30;99.90
69261;DHT22;56378;52.404;20.816;2022-12-07T06:36:32;-0.30;99.90
69261;DHT22;56378;52.404;20.816;2022-12-07T06:38:58;-0.30;99.90
69261;DHT22;56378;52.404;20.816;2022-12-07T06:41:24;-0.30;99.90
69261;DHT22;56378;52.404;20.816;2022-12-07T06:43:50;-0.30;99.90
69261;DHT22;56378;52.404;20.816;2022-12-07T06:46:16;-0.30;99.90
69261;DHT22;56378;52.404;20.816;2022-12-07T06:48:43;-0.30;99.90
69261;DHT22;56378;52.404;20.816;2022-12-07T06:51:09;-0.30;99.90
69261;DHT22;56378;52.404;20.816;2022-12-07T06:53:36;-0.30;99.90
69261;DHT22;56378;52.404;20.816;2022-12-07T06:56:03;-0.40;99.90
69261;DHT22;56378;52.404;20.816;2022-12-07T06:58:29;-0.30;99.90
69261;DHT22;56378;52.404;20.816;2022-12-07T07:00:54;-0.40;99.90
69261;DHT22;56378;52.404;20.816;2022-12-07T07:03:20;-0.40;99.90
69261;DHT22;56378;52.404;20.816;2022-12-07T07:05:46;-0.40;99.90
69261;DHT22;56378;52.404;20.816;2022-12-07T07:08:13;-0.40;99.90
69261;DHT22;56378;52.404;20.816;2022-12-07T07:10:39;-0.40;99.90
69261;DHT22;56378;52.404;20.816;2022-12-07T07:13:05;-0.40;99.90
69261;DHT22;56378;52.404;20.816;2022-12-07T07:15:31;-0.40;99.90
69261;DHT22;56378;52.404;20.816;2022-12-07T07:17:57;-0.40;99.90
69261;DHT22;56378;52.404;20.816;2022-12-07T07:20:23;-0.40;99.90
69261;DHT22;56378;52.404;20.816;2022-12-07T07:22:49;-0.40;99.90
69261;DHT22;56378;52.404;20.816;2022-12-07T07:25:15;-0.40;99.90
69261;DHT22;56378;52.404;20.816;2022-12-07T07:27:41;-0.30;99.90
69261;DHT22;56378;52.404;20.816;2022-12-07T07:30:08;-0.30;99.90
69261;DHT22;56378;52.404;20.816;2022-12-07T07:32:34;-0.30;99.90
69261;DHT22;56378;52.404;20.816;2022-12-07T07:34:59;-0.30;99.90
69261;DHT22;56378;52.404;20.816;2022-12-07T07:37:26;-0.30;99.90
69261;DHT22;56378;52.404;20.816;2022-12-07T07:39:52;-0.30;99.90
69261;DHT22;56378;52.404;20.816;2022-12-07T07:42:17;-0.20;99.90
69261;DHT22;56378;52.404;20.816;2022-12-07T07:44:43;-0.20;99.90
69261;DHT22;56378;52.404;20.816;2022-12-07T07:47:09;-0.20;99.90
69261;DHT22;56378;52.404;20.816;2022-12-07T07:49:35;-0.20;99.90
69261;DHT22;56378;52.404;20.816;2022-12-07T07:52:01;-0.20;99.90
69261;DHT22;56378;52.404;20.816;2022-12-07T07:54:26;-0.20;99.90
69261;DHT22;56378;52.404;20.816;2022-12-07T07:56:52;-0.10;99.90
69261;DHT22;56378;52.404;20.816;2022-12-07T07:59:18;-0.10;99.90
69261;DHT22;56378;52.404;20.816;2022-12-07T08:01:44;-0.10;99.90
69261;DHT22;56378;52.404;20.816;2022-12-07T08:04:10;-0.10;99.90
69261;DHT22;56378;52.404;20.816;2022-12-07T08:06:35;0.00;99.90
69261;DHT22;56378;52.404;20.816;2022-12-07T08:09:02;0.00;99.90
69261;DHT22;56378;52.404;20.816;2022-12-07T08:11:28;0.00;99.90
69261;DHT22;56378;52.404;20.816;2022-12-07T08:13:54;0.00;99.90
69261;DHT22;56378;52.404;20.816;2022-12-07T08:16:20;0.00;99.90
69261;DHT22;56378;52.404;20.816;2022-12-07T08:18:46;0.10;99.90
69261;DHT22;56378;52.404;20.816;2022-12-07T08:21:14;0.10;99.90
69261;DHT22;56378;52.404;20.816;2022-12-07T08:23:40;0.10;99.90
69261;DHT22;56378;52.404;20.816;2022-12-07T08:26:09;0.20;99.90
69261;DHT22;56378;52.404;20.816;2022-12-07T08:28:36;0.20;99.90
69261;DHT22;56378;52.404;20.816;2022-12-07T08:31:05;0.30;99.90
69261;DHT22;56378;52.404;20.816;2022-12-07T08:33:32;0.30;99.90
69261;DHT22;56378;52.404;20.816;2022-12-07T08:36:09;0.40;99.90
69261;DHT22;56378;52.404;20.816;2022-12-07T08:38:36;0.40;99.90
69261;DHT22;56378;52.404;20.816;2022-12-07T08:41:02;0.40;99.90
69261;DHT22;56378;52.404;20.816;2022-12-07T08:43:28;0.50;99.90
69261;DHT22;56378;52.404;20.816;2022-12-07T08:46:11;0.60;99.90
69261;DHT22;56378;52.404;20.816;2022-12-07T08:49:10;0.60;99.90
69261;DHT22;56378;52.404;20.816;2022-12-07T08:51:37;0.70;99.90
69261;DHT22;56378;52.404;20.816;2022-12-07T08:54:06;0.80;99.90
69261;DHT22;56378;52.404;20.816;2022-12-07T08:56:34;0.80;99.90
69261;DHT22;56378;52.404;20.816;2022-12-07T08:59:00;0.90;99.90
69261;DHT22;56378;52.404;20.816;2022-12-07T09:01:26;0.90;99.90
69261;DHT22;56378;52.404;20.816;2022-12-07T09:03:52;0.90;99.90
69261;DHT22;56378;52.404;20.816;2022-12-07T09:06:18;1.00;99.90
69261;DHT22;56378;52.404;20.816;2022-12-07T09:08:47;1.00;99.90
69261;DHT22;56378;52.404;20.816;2022-12-07T09:11:14;1.10;99.90
69261;DHT22;56378;52.404;20.816;2022-12-07T09:13:39;1.10;99.90
69261;DHT22;56378;52.404;20.816;2022-12-07T09:16:05;1.10;99.90
69261;DHT22;56378;52.404;20.816;2022-12-07T09:18:31;1.20;99.90
69261;DHT22;56378;52.404;20.816;2022-12-07T09:20:57;1.20;99.90
69261;DHT22;56378;52.404;20.816;2022-12-07T09:23:23;1.30;99.90
69261;DHT22;56378;52.404;20.816;2022-12-07T09:25:49;1.30;99.90
69261;DHT22;56378;52.404;20.816;2022-12-07T09:28:15;1.30;99.90
69261;DHT22;56378;52.404;20.816;2022-12-07T09:30:48;1.40;99.90
69261;DHT22;56378;52.404;20.816;2022-12-07T09:33:14;1.50;99.90
69261;DHT22;56378;52.404;20.816;2022-12-07T09:35:47;1.50;99.90
69261;DHT22;56378;52.404;20.816;2022-12-07T09:38:13;1.50;99.90
69261;DHT22;56378;52.404;20.816;2022-12-07T09:40:39;1.60;99.90
69261;DHT22;56378;52.404;20.816;2022-12-07T09:43:10;1.60;99.90
69261;DHT22;56378;52.404;20.816;2022-12-07T09:45:37;1.60;99.90
69261;DHT22;56378;52.404;20.816;2022-12-07T09:48:04;1.60;99.90
69261;DHT22;56378;52.404;20.816;2022-12-07T09:50:31;1.60;99.90
69261;DHT22;56378;52.404;20.816;2022-12-07T09:53:12;1.60;99.90
69261;DHT22;56378;52.404;20.816;2022-12-07T09:55:41;1.60;99.90
69261;DHT22;56378;52.404;20.816;2022-12-07T09:58:43;1.60;99.90
69261;DHT22;56378;52.404;20.816;2022-12-07T10:01:15;1.60;99.90
69261;DHT22;56378;52.404;20.816;2022-12-07T10:03:52;1.60;99.90
69261;DHT22;56378;52.404;20.816;2022-12-07T10:06:18;1.60;99.90
69261;DHT22;56378;52.404;20.816;2022-12-07T10:08:44;1.60;99.90
69261;DHT22;56378;52.404;20.816;2022-12-07T10:11:10;1.50;99.90
69261;DHT22;56378;52.404;20.816;2022-12-07T10:13:46;1.50;99.90
69261;DHT22;56378;52.404;20.816;2022-12-07T10:16:38;1.50;99.90
69261;DHT22;56378;52.404;20.816;2022-12-07T10:19:22;1.50;99.90
69261;DHT22;56378;52.404;20.816;2022-12-07T10:24:31;1.50;99.90
69261;DHT22;56378;52.404;20.816;2022-12-07T10:26:57;1.40;99.90
69261;DHT22;56378;52.404;20.816;2022-12-07T10:29:33;1.40;99.90
69261;DHT22;56378;52.404;20.816;2022-12-07T10:34:41;1.40;99.90
69261;DHT22;56378;52.404;20.816;2022-12-07T10:39:53;1.40;99.90
69261;DHT22;56378;52.404;20.816;2022-12-07T10:42:27;1.50;99.90
69261;DHT22;56378;52.404;20.816;2022-12-07T10:45:17;1.50;99.90
69261;DHT22;56378;52.404;20.816;2022-12-07T10:52:55;1.90;99.90
69261;DHT22;56378;52.404;20.816;2022-12-07T11:01:16;2.10;99.90
69261;DHT22;56378;52.404;20.816;2022-12-07T11:17:35;2.10;99.90
69261;DHT22;56378;52.404;20.816;2022-12-07T11:20:29;2.10;99.90
69261;DHT22;56378;52.404;20.816;2022-12-07T11:31:39;2.00;99.90
69261;DHT22;56378;52.404;20.816;2022-12-07T11:36:57;1.90;99.90
69261;DHT22;56378;52.404;20.816;2022-12-07T11:39:33;1.90;99.90
69261;DHT22;56378;52.404;20.816;2022-12-07T11:42:19;1.80;99.90
69261;DHT22;56378;52.404;20.816;2022-12-07T11:44:57;1.90;99.90
69261;DHT22;56378;52.404;20.816;2022-12-07T11:58:38;2.00;99.90
69261;DHT22;56378;52.404;20.816;2022-12-07T12:06:21;2.40;99.90
69261;DHT22;56378;52.404;20.816;2022-12-07T12:08:53;2.50;99.90
69261;DHT22;56378;52.404;20.816;2022-12-07T12:17:32;2.90;98.70
69261;DHT22;56378;52.404;20.816;2022-12-07T12:20:29;2.80;98.10
69261;DHT22;56378;52.404;20.816;2022-12-07T12:23:16;2.70;97.90
69261;DHT22;56378;52.404;20.816;2022-12-07T12:26:03;2.50;97.80
69261;DHT22;56378;52.404;20.816;2022-12-07T12:28:48;2.40;98.90
69261;DHT22;56378;52.404;20.816;2022-12-07T12:33:54;2.20;99.30
69261;DHT22;56378;52.404;20.816;2022-12-07T12:36:24;2.20;99.90
69261;DHT22;56378;52.404;20.816;2022-12-07T12:39:19;2.10;99.90
69261;DHT22;56378;52.404;20.816;2022-12-07T12:51:55;2.00;99.90
69261;DHT22;56378;52.404;20.816;2022-12-07T12:54:33;1.90;99.90
69261;DHT22;56378;52.404;20.816;2022-12-07T12:57:29;1.90;99.90
69261;DHT22;56378;52.404;20.816;2022-12-07T13:02:39;1.80;99.90
69261;DHT22;56378;52.404;20.816;2022-12-07T13:12:59;1.80;99.90
69261;DHT22;56378;52.404;20.816;2022-12-07T13:16:40;1.80;99.90
69261;DHT22;56378;52.404;20.816;2022-12-07T13:18:41;1.80;99.90
69261;DHT22;56378;52.404;20.816;2022-12-07T13:26:22;1.70;99.90
69261;DHT22;56378;52.404;20.816;2022-12-07T13:33:50;1.60;99.90
69261;DHT22;56378;52.404;20.816;2022-12-07T13:36:37;1.50;99.90
69261;DHT22;56378;52.404;20.816;2022-12-07T13:39:17;1.50;99.90
69261;DHT22;56378;52.404;20.816;2022-12-07T13:41:44;1.50;99.90
69261;DHT22;56378;52.404;20.816;2022-12-07T13:44:13;1.40;99.90
69261;DHT22;56378;52.404;20.816;2022-12-07T13:49:26;1.40;99.90
69261;DHT22;56378;52.404;20.816;2022-12-07T13:51:53;1.40;99.90
69261;DHT22;56378;52.404;20.816;2022-12-07T13:54:20;1.40;99.90
69261;DHT22;56378;52.404;20.816;2022-12-07T13:56:51;1.40;99.90
69261;DHT22;56378;52.404;20.816;2022-12-07T13:59:26;1.40;99.90
69261;DHT22;56378;52.404;20.816;2022-12-07T14:01:53;1.30;99.90
69261;DHT22;56378;52.404;20.816;2022-12-07T14:04:39;1.30;99.90
69261;DHT22;56378;52.404;20.816;2022-12-07T14:07:48;1.20;99.90
69261;DHT22;56378;52.404;20.816;2022-12-07T14:10:31;1.20;99.90
69261;DHT22;56378;52.404;20.816;2022-12-07T14:12:59;1.10;99.90
69261;DHT22;56378;52.404;20.816;2022-12-07T14:15:33;1.10;99.90
69261;DHT22;56378;52.404;20.816;2022-12-07T14:18:01;1.00;99.90
69261;DHT22;56378;52.404;20.816;2022-12-07T14:23:02;1.00;99.90
69261;DHT22;56378;52.404;20.816;2022-12-07T14:26:03;1.00;99.90
69261;DHT22;56378;52.404;20.816;2022-12-07T14:28:32;0.90;99.90
69261;DHT22;56378;52.404;20.816;2022-12-07T14:30:59;0.90;99.90
69261;DHT22;56378;52.404;20.816;2022-12-07T14:33:26;0.90;99.90
69261;DHT22;56378;52.404;20.816;2022-12-07T14:35:52;0.80;99.90
69261;DHT22;56378;52.404;20.816;2022-12-07T14:38:24;0.70;99.90
69261;DHT22;56378;52.404;20.816;2022-12-07T14:40:54;0.70;99.90
69261;DHT22;56378;52.404;20.816;2022-12-07T14:43:40;0.70;99.90
69261;DHT22;56378;52.404;20.816;2022-12-07T14:46:06;0.60;99.90
69261;DHT22;56378;52.404;20.816;2022-12-07T14:48:31;0.50;99.90
69261;DHT22;56378;52.404;20.816;2022-12-07T14:50:57;0.40;99.90
69261;DHT22;56378;52.404;20.816;2022-12-07T14:53:31;0.40;99.90
69261;DHT22;56378;52.404;20.816;2022-12-07T14:55:59;0.30;99.90
69261;DHT22;56378;52.404;20.816;2022-12-07T14:58:24;0.30;99.90
69261;DHT22;56378;52.404;20.816;2022-12-07T15:00:50;0.20;99.90
69261;DHT22;56378;52.404;20.816;2022-12-07T15:03:16;0.10;99.90
69261;DHT22;56378;52.404;20.816;2022-12-07T15:05:42;0.10;99.90
69261;DHT22;56378;52.404;20.816;2022-12-07T15:08:12;0.00;99.90
69261;DHT22;56378;52.404;20.816;2022-12-07T15:10:38;0.00;99.90
69261;DHT22;56378;52.404;20.816;2022-12-07T15:13:06;-0.10;99.90
69261;DHT22;56378;52.404;20.816;2022-12-07T15:15:52;-0.10;99.90
69261;DHT22;56378;52.404;20.816;2022-12-07T15:18:19;-0.10;99.90
69261;DHT22;56378;52.404;20.816;2022-12-07T15:20:45;-0.10;99.90
69261;DHT22;56378;52.404;20.816;2022-12-07T15:23:12;-0.10;99.90
69261;DHT22;56378;52.404;20.816;2022-12-07T15:25:41;-0.10;99.90
69261;DHT22;56378;52.404;20.816;2022-12-07T15:28:07;-0.10;99.90
69261;DHT22;56378;52.404;20.816;2022-12-07T15:30:33;-0.10;99.90
69261;DHT22;56378;52.404;20.816;2022-12-07T15:32:59;-0.10;99.90
69261;DHT22;56378;52.404;20.816;2022-12-07T15:35:24;-0.10;99.90
69261;DHT22;56378;52.404;20.816;2022-12-07T15:37:50;-0.10;99.90
69261;DHT22;56378;52.404;20.816;2022-12-07T15:40:16;-0.10;99.90
69261;DHT22;56378;52.404;20.816;2022-12-07T15:42:42;0.00;99.90
69261;DHT22;56378;52.404;20.816;2022-12-07T15:45:08;0.00;99.90
69261;DHT22;56378;52.404;20.816;2022-12-07T15:47:40;0.00;99.90
69261;DHT22;56378;52.404;20.816;2022-12-07T15:50:09;0.00;99.90
69261;DHT22;56378;52.404;20.816;2022-12-07T15:52:36;0.00;99.90
69261;DHT22;56378;52.404;20.816;2022-12-07T15:55:03;0.00;99.90
69261;DHT22;56378;52.404;20.816;2022-12-07T15:57:32;0.10;99.90
69261;DHT22;56378;52.404;20.816;2022-12-07T15:59:58;0.10;99.90
69261;DHT22;56378;52.404;20.816;2022-12-07T16:02:24;0.10;99.90
69261;DHT22;56378;52.404;20.816;2022-12-07T16:04:51;0.10;99.90
69261;DHT22;56378;52.404;20.816;2022-12-07T16:07:17;0.10;99.90
69261;DHT22;56378;52.404;20.816;2022-12-07T16:09:45;0.20;99.90
69261;DHT22;56378;52.404;20.816;2022-12-07T16:12:12;0.20;99.90
69261;DHT22;56378;52.404;20.816;2022-12-07T16:14:39;0.20;99.90
69261;DHT22;56378;52.404;20.816;2022-12-07T16:17:05;0.20;99.90
69261;DHT22;56378;52.404;20.816;2022-12-07T16:19:32;0.20;99.90
69261;DHT22;56378;52.404;20.816;2022-12-07T16:21:58;0.20;99.90
69261;DHT22;56378;52.404;20.816;2022-12-07T16:24:25;0.20;99.90
69261;DHT22;56378;52.404;20.816;2022-12-07T16:26:51;0.30;99.90
69261;DHT22;56378;52.404;20.816;2022-12-07T16:29:18;0.30;99.90
69261;DHT22;56378;52.404;20.816;2022-12-07T16:31:44;0.30;99.90
69261;DHT22;56378;52.404;20.816;2022-12-07T16:34:10;0.30;99.90
69261;DHT22;56378;52.404;20.816;2022-12-07T16:36:36;0.30;99.90
69261;DHT22;56378;52.404;20.816;2022-12-07T16:39:03;0.30;99.90
69261;DHT22;56378;52.404;20.816;2022-12-07T16:41:29;0.30;99.90
69261;DHT22;56378;52.404;20.816;2022-12-07T16:43:55;0.30;99.90
69261;DHT22;56378;52.404;20.816;2022-12-07T16:46:21;0.30;99.90
69261;DHT22;56378;52.404;20.816;2022-12-07T16:48:46;0.30;99.90
69261;DHT22;56378;52.404;20.816;2022-12-07T16:51:13;0.30;99.90
69261;DHT22;56378;52.404;20.816;2022-12-07T16:53:40;0.40;99.90
69261;DHT22;56378;52.404;20.816;2022-12-07T16:56:11;0.40;99.90
69261;DHT22;56378;52.404;20.816;2022-12-07T16:58:37;0.30;99.90
69261;DHT22;56378;52.404;20.816;2022-12-07T17:01:14;0.30;99.90
69261;DHT22;56378;52.404;20.816;2022-12-07T17:03:41;0.40;99.90
69261;DHT22;56378;52.404;20.816;2022-12-07T17:06:26;0.40;99.90
69261;DHT22;56378;52.404;20.816;2022-12-07T17:08:53;0.40;99.90
69261;DHT22;56378;52.404;20.816;2022-12-07T17:11:21;0.50;99.90
69261;DHT22;56378;52.404;20.816;2022-12-07T17:13:47;0.50;99.90
69261;DHT22;56378;52.404;20.816;2022-12-07T17:16:31;0.50;99.90
69261;DHT22;56378;52.404;20.816;2022-12-07T17:18:57;0.50;99.90
69261;DHT22;56378;52.404;20.816;2022-12-07T17:21:23;0.60;99.90
69261;DHT22;56378;52.404;20.816;2022-12-07T17:23:49;0.60;99.90
69261;DHT22;56378;52.404;20.816;2022-12-07T17:26:22;0.70;99.90
69261;DHT22;56378;52.404;20.816;2022-12-07T17:28:47;0.70;99.90
69261;DHT22;56378;52.404;20.816;2022-12-07T17:31:15;0.70;99.90
69261;DHT22;56378;52.404;20.816;2022-12-07T17:33:41;0.70;99.90
69261;DHT22;56378;52.404;20.816;2022-12-07T17:36:15;0.70;99.90
69261;DHT22;56378;52.404;20.816;2022-12-07T17:38:42;0.70;99.90
69261;DHT22;56378;52.404;20.816;2022-12-07T17:41:10;0.70;99.90
69261;DHT22;56378;52.404;20.816;2022-12-07T17:43:36;0.70;99.90
69261;DHT22;56378;52.404;20.816;2022-12-07T17:46:09;0.70;99.90
69261;DHT22;56378;52.404;20.816;2022-12-07T17:48:35;0.70;99.90
69261;DHT22;56378;52.404;20.816;2022-12-07T17:51:01;0.60;99.90
69261;DHT22;56378;52.404;20.816;2022-12-07T17:53:50;0.60;99.90
69261;DHT22;56378;52.404;20.816;2022-12-07T17:56:16;0.60;99.90
69261;DHT22;56378;52.404;20.816;2022-12-07T17:58:42;0.60;99.90
69261;DHT22;56378;52.404;20.816;2022-12-07T18:01:09;0.60;99.90